sensor_id;sensor_type;location;lat;lon;timestamp;pressure;altitude;pressure_sealevel;temperature;humidity
64933;BME280;51446;53.850;10.662;2022-12-18T00:01:30;102890.06;;;-6.85;100.00
64933;BME280;51446;53.850;10.662;2022-12-18T00:03:57;102884.22;;;-6.84;100.00
64933;BME280;51446;53.850;10.662;2022-12-18T00:06:26;102874.75;;;-6.78;100.00
64933;BME280;51446;53.850;10.662;2022-12-18T00:08:53;102885.16;;;-6.84;100.00
64933;BME280;51446;53.850;10.662;2022-12-18T00:11:21;102896.59;;;-6.94;100.00
64933;BME280;51446;53.850;10.662;2022-12-18T00:13:47;102897.16;;;-6.90;100.00
64933;BME280;51446;53.850;10.662;2022-12-18T00:16:16;102884.78;;;-7.01;100.00
64933;BME280;51446;53.850;10.662;2022-12-18T00:18:43;102895.50;;;-6.97;100.00
64933;BME280;51446;53.850;10.662;2022-12-18T00:21:10;102875.06;;;-7.18;100.00
64933;BME280;51446;53.850;10.662;2022-12-18T00:23:37;102903.88;;;-6.98;100.00
64933;BME280;51446;53.850;10.662;2022-12-18T00:26:07;102901.50;;;-7.10;100.00
64933;BME280;51446;53.850;10.662;2022-12-18T00:28:33;102906.41;;;-7.05;100.00
64933;BME280;51446;53.850;10.662;2022-12-18T00:33:27;102899.69;;;-7.11;100.00
64933;BME280;51446;53.850;10.662;2022-12-18T00:35:52;102906.41;;;-7.05;100.00
64933;BME280;51446;53.850;10.662;2022-12-18T00:38:17;102907.72;;;-7.01;100.00
64933;BME280;51446;53.850;10.662;2022-12-18T00:40:43;102910.63;;;-7.05;100.00
64933;BME280;51446;53.850;10.662;2022-12-18T00:43:08;102911.69;;;-7.10;100.00
64933;BME280;51446;53.850;10.662;2022-12-18T00:45:34;102889.25;;;-7.27;100.00
64933;BME280;51446;53.850;10.662;2022-12-18T00:47:59;102919.34;;;-7.10;100.00
64933;BME280;51446;53.850;10.662;2022-12-18T00:50:25;102928.63;;;-7.18;100.00
64933;BME280;51446;53.850;10.662;2022-12-18T00:52:51;102937.50;;;-7.22;100.00
64933;BME280;51446;53.850;10.662;2022-12-18T00:55:17;102939.28;;;-7.35;100.00
64933;BME280;51446;53.850;10.662;2022-12-18T00:57:42;102937.50;;;-7.22;100.00
64933;BME280;51446;53.850;10.662;2022-12-18T01:00:11;102956.59;;;-7.33;100.00
64933;BME280;51446;53.850;10.662;2022-12-18T01:02:37;102949.31;;;-7.37;100.00
64933;BME280;51446;53.850;10.662;2022-12-18T01:05:02;102941.09;;;-7.41;100.00
64933;BME280;51446;53.850;10.662;2022-12-18T01:07:28;102953.56;;;-7.23;100.00
64933;BME280;51446;53.850;10.662;2022-12-18T01:09:53;102936.63;;;-7.15;100.00
64933;BME280;51446;53.850;10.662;2022-12-18T01:12:18;102938.50;;;-7.07;100.00
64933;BME280;51446;53.850;10.662;2022-12-18T01:14:43;102935.03;;;-7.00;100.00
64933;BME280;51446;53.850;10.662;2022-12-18T01:17:09;102938.84;;;-7.04;100.00
64933;BME280;51446;53.850;10.662;2022-12-18T01:19:34;102934.66;;;-6.96;100.00
64933;BME280;51446;53.850;10.662;2022-12-18T01:21:59;102939.56;;;-7.12;100.00
64933;BME280;51446;53.850;10.662;2022-12-18T01:24:25;102934.44;;;-7.12;100.00
64933;BME280;51446;53.850;10.662;2022-12-18T01:26:50;102935.63;;;-6.88;100.00
64933;BME280;51446;53.850;10.662;2022-12-18T01:29:15;102933.59;;;-6.98;100.00
64933;BME280;51446;53.850;10.662;2022-12-18T01:31:41;102932.28;;;-7.09;100.00
64933;BME280;51446;53.850;10.662;2022-12-18T01:34:06;102951.19;;;-7.21;100.00
64933;BME280;51446;53.850;10.662;2022-12-18T01:36:34;102948.47;;;-7.23;100.00
64933;BME280;51446;53.850;10.662;2022-12-18T01:39:02;102946.56;;;-7.38;100.00
64933;BME280;51446;53.850;10.662;2022-12-18T01:41:30;102941.53;;;-7.17;100.00
64933;BME280;51446;53.850;10.662;2022-12-18T01:47:20;102927.84;;;-7.32;100.00
64933;BME280;51446;53.850;10.662;2022-12-18T01:49:46;102923.25;;;-7.41;100.00
64933;BME280;51446;53.850;10.662;2022-12-18T01:52:11;102934.19;;;-7.35;100.00
64933;BME280;51446;53.850;10.662;2022-12-18T01:54:37;102932.13;;;-7.52;100.00
64933;BME280;51446;53.850;10.662;2022-12-18T01:57:02;102937.88;;;-7.33;100.00
64933;BME280;51446;53.850;10.662;2022-12-18T01:59:29;102939.63;;;-7.39;100.00
64933;BME280;51446;53.850;10.662;2022-12-18T02:01:56;102945.25;;;-7.49;100.00
64933;BME280;51446;53.850;10.662;2022-12-18T02:04:25;102952.81;;;-7.63;100.00
64933;BME280;51446;53.850;10.662;2022-12-18T02:07:18;102945.72;;;-7.66;100.00
64933;BME280;51446;53.850;10.662;2022-12-18T02:09:51;102955.09;;;-7.45;100.00
64933;BME280;51446;53.850;10.662;2022-12-18T02:12:22;102957.94;;;-7.56;100.00
64933;BME280;51446;53.850;10.662;2022-12-18T02:14:52;102963.47;;;-7.46;100.00
64933;BME280;51446;53.850;10.662;2022-12-18T02:17:22;102964.03;;;-7.76;100.00
64933;BME280;51446;53.850;10.662;2022-12-18T02:25:38;102968.53;;;-7.88;100.00
64933;BME280;51446;53.850;10.662;2022-12-18T02:28:09;102975.97;;;-7.89;100.00
64933;BME280;51446;53.850;10.662;2022-12-18T02:30:37;102972.34;;;-8.11;100.00
64933;BME280;51446;53.850;10.662;2022-12-18T02:33:06;102968.94;;;-8.05;100.00
64933;BME280;51446;53.850;10.662;2022-12-18T02:35:34;102972.63;;;-7.95;100.00
64933;BME280;51446;53.850;10.662;2022-12-18T02:38:03;102980.78;;;-7.98;100.00
64933;BME280;51446;53.850;10.662;2022-12-18T02:40:29;102973.84;;;-8.06;100.00
64933;BME280;51446;53.850;10.662;2022-12-18T02:42:55;102977.56;;;-7.62;100.00
64933;BME280;51446;53.850;10.662;2022-12-18T02:45:20;102975.75;;;-7.63;100.00
64933;BME280;51446;53.850;10.662;2022-12-18T02:47:48;102957.34;;;-7.68;100.00
64933;BME280;51446;53.850;10.662;2022-12-18T02:50:31;102974.78;;;-7.37;100.00
64933;BME280;51446;53.850;10.662;2022-12-18T02:53:50;102979.72;;;-7.31;100.00
64933;BME280;51446;53.850;10.662;2022-12-18T02:56:24;102977.97;;;-7.18;100.00
64933;BME280;51446;53.850;10.662;2022-12-18T02:59:00;102981.34;;;-6.90;100.00
64933;BME280;51446;53.850;10.662;2022-12-18T03:01:43;102986.09;;;-6.78;100.00
64933;BME280;51446;53.850;10.662;2022-12-18T03:04:18;102995.34;;;-6.93;100.00
64933;BME280;51446;53.850;10.662;2022-12-18T03:06:49;102995.34;;;-6.93;100.00
64933;BME280;51446;53.850;10.662;2022-12-18T03:09:20;102984.69;;;-6.48;100.00
64933;BME280;51446;53.850;10.662;2022-12-18T03:11:54;102986.34;;;-6.34;100.00
64933;BME280;51446;53.850;10.662;2022-12-18T03:14:41;102984.31;;;-6.00;100.00
64933;BME280;51446;53.850;10.662;2022-12-18T03:17:10;102988.69;;;-5.99;100.00
64933;BME280;51446;53.850;10.662;2022-12-18T03:19:39;102983.13;;;-5.66;100.00
64933;BME280;51446;53.850;10.662;2022-12-18T03:22:07;102991.06;;;-6.15;100.00
64933;BME280;51446;53.850;10.662;2022-12-18T03:24:33;102994.91;;;-6.04;100.00
64933;BME280;51446;53.850;10.662;2022-12-18T03:27:01;103003.44;;;-6.62;100.00
64933;BME280;51446;53.850;10.662;2022-12-18T03:29:34;102991.97;;;-6.58;100.00
64933;BME280;51446;53.850;10.662;2022-12-18T03:32:05;102987.97;;;-6.34;100.00
64933;BME280;51446;53.850;10.662;2022-12-18T03:34:34;102986.34;;;-6.26;100.00
64933;BME280;51446;53.850;10.662;2022-12-18T03:37:01;102995.63;;;-6.05;100.00
64933;BME280;51446;53.850;10.662;2022-12-18T03:39:26;102990.16;;;-6.45;100.00
64933;BME280;51446;53.850;10.662;2022-12-18T03:42:08;102994.88;;;-6.62;100.00
64933;BME280;51446;53.850;10.662;2022-12-18T03:47:11;102990.31;;;-6.72;100.00
64933;BME280;51446;53.850;10.662;2022-12-18T03:49:46;102997.22;;;-6.78;100.00
64933;BME280;51446;53.850;10.662;2022-12-18T03:54:53;103003.94;;;-6.78;100.00
64933;BME280;51446;53.850;10.662;2022-12-18T03:57:24;103007.91;;;-6.95;100.00
64933;BME280;51446;53.850;10.662;2022-12-18T03:59:55;103007.13;;;-7.16;100.00
64933;BME280;51446;53.850;10.662;2022-12-18T04:02:22;103007.78;;;-7.31;100.00
64933;BME280;51446;53.850;10.662;2022-12-18T04:04:51;103001.03;;;-7.30;100.00
64933;BME280;51446;53.850;10.662;2022-12-18T04:07:18;102991.00;;;-6.80;100.00
64933;BME280;51446;53.850;10.662;2022-12-18T04:09:44;102993.41;;;-6.67;100.00
64933;BME280;51446;53.850;10.662;2022-12-18T04:12:10;102970.03;;;-6.85;100.00
64933;BME280;51446;53.850;10.662;2022-12-18T04:14:36;102988.19;;;-7.10;100.00
64933;BME280;51446;53.850;10.662;2022-12-18T04:17:02;102986.97;;;-6.92;100.00
64933;BME280;51446;53.850;10.662;2022-12-18T04:19:27;102995.50;;;-6.99;100.00
64933;BME280;51446;53.850;10.662;2022-12-18T04:21:52;102991.44;;;-7.19;100.00
64933;BME280;51446;53.850;10.662;2022-12-18T04:24:18;102987.88;;;-7.41;100.00
64933;BME280;51446;53.850;10.662;2022-12-18T04:26:43;102985.19;;;-7.35;100.00
64933;BME280;51446;53.850;10.662;2022-12-18T04:29:08;102983.75;;;-7.33;100.00
64933;BME280;51446;53.850;10.662;2022-12-18T04:31:33;102985.13;;;-7.01;100.00
64933;BME280;51446;53.850;10.662;2022-12-18T04:33:59;102985.50;;;-6.90;100.00
64933;BME280;51446;53.850;10.662;2022-12-18T04:36:24;102989.00;;;-7.39;100.00
64933;BME280;51446;53.850;10.662;2022-12-18T04:38:49;102996.22;;;-7.00;100.00
64933;BME280;51446;53.850;10.662;2022-12-18T04:41:15;102998.44;;;-6.96;100.00
64933;BME280;51446;53.850;10.662;2022-12-18T04:43:40;103004.78;;;-7.07;100.00
64933;BME280;51446;53.850;10.662;2022-12-18T04:46:06;103002.19;;;-7.21;100.00
64933;BME280;51446;53.850;10.662;2022-12-18T04:48:32;102992.97;;;-6.99;100.00
64933;BME280;51446;53.850;10.662;2022-12-18T04:50:58;102991.91;;;-6.87;100.00
64933;BME280;51446;53.850;10.662;2022-12-18T04:53:25;102995.28;;;-7.15;100.00
64933;BME280;51446;53.850;10.662;2022-12-18T04:55:50;103007.00;;;-7.44;100.00
64933;BME280;51446;53.850;10.662;2022-12-18T04:58:15;103010.81;;;-7.41;100.00
64933;BME280;51446;53.850;10.662;2022-12-18T05:00:41;103021.19;;;-7.39;100.00
64933;BME280;51446;53.850;10.662;2022-12-18T05:03:06;103023.84;;;-7.52;100.00
64933;BME280;51446;53.850;10.662;2022-12-18T05:05:31;103021.25;;;-7.87;100.00
64933;BME280;51446;53.850;10.662;2022-12-18T05:07:56;103023.53;;;-7.75;100.00
64933;BME280;51446;53.850;10.662;2022-12-18T05:10:22;103025.66;;;-7.24;100.00
64933;BME280;51446;53.850;10.662;2022-12-18T05:12:47;103021.56;;;-7.36;100.00
64933;BME280;51446;53.850;10.662;2022-12-18T05:15:29;103027.22;;;-6.97;100.00
64933;BME280;51446;53.850;10.662;2022-12-18T05:17:59;103019.31;;;-7.55;100.00
64933;BME280;51446;53.850;10.662;2022-12-18T05:20:25;103023.16;;;-7.78;100.00
64933;BME280;51446;53.850;10.662;2022-12-18T05:22:51;103016.97;;;-7.80;100.00
64933;BME280;51446;53.850;10.662;2022-12-18T05:25:17;103022.72;;;-7.89;100.00
64933;BME280;51446;53.850;10.662;2022-12-18T05:27:42;103013.47;;;-7.54;100.00
64933;BME280;51446;53.850;10.662;2022-12-18T05:30:08;103024.94;;;-7.23;100.00
64933;BME280;51446;53.850;10.662;2022-12-18T05:32:34;103029.41;;;-7.35;100.00
64933;BME280;51446;53.850;10.662;2022-12-18T05:34:59;103023.59;;;-6.92;100.00
64933;BME280;51446;53.850;10.662;2022-12-18T05:37:24;103023.72;;;-7.05;100.00
64933;BME280;51446;53.850;10.662;2022-12-18T05:39:49;103023.63;;;-7.26;100.00
64933;BME280;51446;53.850;10.662;2022-12-18T05:42:15;103030.94;;;-7.57;100.00
64933;BME280;51446;53.850;10.662;2022-12-18T05:44:40;103034.16;;;-6.89;100.00
64933;BME280;51446;53.850;10.662;2022-12-18T05:47:05;103037.88;;;-6.72;100.00
64933;BME280;51446;53.850;10.662;2022-12-18T05:49:32;103050.44;;;-6.74;100.00
64933;BME280;51446;53.850;10.662;2022-12-18T05:51:57;103054.97;;;-7.20;100.00
64933;BME280;51446;53.850;10.662;2022-12-18T05:54:22;103057.09;;;-6.96;100.00
64933;BME280;51446;53.850;10.662;2022-12-18T05:56:47;103055.41;;;-7.10;100.00
64933;BME280;51446;53.850;10.662;2022-12-18T05:59:13;103058.97;;;-7.22;100.00
64933;BME280;51446;53.850;10.662;2022-12-18T06:01:38;103064.75;;;-7.85;100.00
64933;BME280;51446;53.850;10.662;2022-12-18T06:04:04;103057.38;;;-7.76;100.00
64933;BME280;51446;53.850;10.662;2022-12-18T06:06:30;103057.47;;;-8.29;100.00
64933;BME280;51446;53.850;10.662;2022-12-18T06:08:56;103058.13;;;-7.97;100.00
64933;BME280;51446;53.850;10.662;2022-12-18T06:11:26;103051.13;;;-8.06;100.00
64933;BME280;51446;53.850;10.662;2022-12-18T06:13:52;103049.38;;;-7.72;100.00
64933;BME280;51446;53.850;10.662;2022-12-18T06:16:18;103050.22;;;-7.59;100.00
64933;BME280;51446;53.850;10.662;2022-12-18T06:18:44;103052.44;;;-7.55;100.00
64933;BME280;51446;53.850;10.662;2022-12-18T06:21:09;103046.31;;;-8.17;100.00
64933;BME280;51446;53.850;10.662;2022-12-18T06:23:34;103042.22;;;-8.09;100.00
64933;BME280;51446;53.850;10.662;2022-12-18T06:26:05;103053.41;;;-7.94;100.00
64933;BME280;51446;53.850;10.662;2022-12-18T06:28:31;103047.56;;;-7.73;100.00
64933;BME280;51446;53.850;10.662;2022-12-18T06:30:56;103049.28;;;-7.87;100.00
64933;BME280;51446;53.850;10.662;2022-12-18T06:33:21;103051.03;;;-7.73;100.00
64933;BME280;51446;53.850;10.662;2022-12-18T06:35:46;103043.88;;;-7.21;100.00
64933;BME280;51446;53.850;10.662;2022-12-18T06:38:13;103043.47;;;-7.58;100.00
64933;BME280;51446;53.850;10.662;2022-12-18T06:40:38;103038.84;;;-7.95;100.00
64933;BME280;51446;53.850;10.662;2022-12-18T06:43:04;103058.31;;;-8.16;100.00
64933;BME280;51446;53.850;10.662;2022-12-18T06:45:29;103068.47;;;-7.76;100.00
64933;BME280;51446;53.850;10.662;2022-12-18T06:47:55;103083.13;;;-7.88;100.00
64933;BME280;51446;53.850;10.662;2022-12-18T06:50:20;103080.75;;;-7.66;100.00
64933;BME280;51446;53.850;10.662;2022-12-18T06:52:45;103085.47;;;-7.35;100.00
64933;BME280;51446;53.850;10.662;2022-12-18T06:55:11;103069.13;;;-7.29;100.00
64933;BME280;51446;53.850;10.662;2022-12-18T06:57:37;103073.97;;;-7.45;100.00
64933;BME280;51446;53.850;10.662;2022-12-18T07:00:04;103076.97;;;-8.03;100.00
64933;BME280;51446;53.850;10.662;2022-12-18T07:02:30;103086.50;;;-8.34;100.00
64933;BME280;51446;53.850;10.662;2022-12-18T07:04:55;103090.03;;;-8.27;100.00
64933;BME280;51446;53.850;10.662;2022-12-18T07:07:20;103085.81;;;-8.13;100.00
64933;BME280;51446;53.850;10.662;2022-12-18T07:09:45;103084.69;;;-7.48;100.00
64933;BME280;51446;53.850;10.662;2022-12-18T07:12:11;103085.94;;;-7.52;100.00
64933;BME280;51446;53.850;10.662;2022-12-18T07:14:36;103084.34;;;-7.44;100.00
64933;BME280;51446;53.850;10.662;2022-12-18T07:17:01;103091.19;;;-7.57;100.00
64933;BME280;51446;53.850;10.662;2022-12-18T07:19:26;103084.53;;;-7.70;100.00
64933;BME280;51446;53.850;10.662;2022-12-18T07:21:52;103087.34;;;-8.01;100.00
64933;BME280;51446;53.850;10.662;2022-12-18T07:24:17;103084.28;;;-7.98;100.00
64933;BME280;51446;53.850;10.662;2022-12-18T07:26:45;103084.00;;;-7.67;100.00
64933;BME280;51446;53.850;10.662;2022-12-18T07:29:11;103086.03;;;-7.64;100.00
64933;BME280;51446;53.850;10.662;2022-12-18T07:31:36;103081.03;;;-7.50;100.00
64933;BME280;51446;53.850;10.662;2022-12-18T07:34:01;103079.53;;;-7.55;100.00
64933;BME280;51446;53.850;10.662;2022-12-18T07:36:26;103094.78;;;-7.62;100.00
64933;BME280;51446;53.850;10.662;2022-12-18T07:38:52;103089.41;;;-7.51;100.00
64933;BME280;51446;53.850;10.662;2022-12-18T07:41:18;103102.13;;;-7.51;100.00
64933;BME280;51446;53.850;10.662;2022-12-18T07:43:44;103102.00;;;-7.45;100.00
64933;BME280;51446;53.850;10.662;2022-12-18T07:46:10;103099.25;;;-7.94;100.00
64933;BME280;51446;53.850;10.662;2022-12-18T07:48:36;103106.56;;;-8.10;100.00
64933;BME280;51446;53.850;10.662;2022-12-18T07:51:03;103123.41;;;-8.18;100.00
64933;BME280;51446;53.850;10.662;2022-12-18T07:53:29;103129.84;;;-8.27;100.00
64933;BME280;51446;53.850;10.662;2022-12-18T07:55:59;103123.25;;;-8.32;100.00
64933;BME280;51446;53.850;10.662;2022-12-18T07:58:25;103117.19;;;-8.20;100.00
64933;BME280;51446;53.850;10.662;2022-12-18T08:00:51;103109.44;;;-7.94;100.00
64933;BME280;51446;53.850;10.662;2022-12-18T08:03:17;103115.91;;;-7.83;100.00
64933;BME280;51446;53.850;10.662;2022-12-18T08:05:43;103122.09;;;-7.61;100.00
64933;BME280;51446;53.850;10.662;2022-12-18T08:08:08;103125.31;;;-7.42;100.00
64933;BME280;51446;53.850;10.662;2022-12-18T08:10:33;103112.16;;;-6.42;100.00
64933;BME280;51446;53.850;10.662;2022-12-18T08:12:59;103111.63;;;-5.38;100.00
64933;BME280;51446;53.850;10.662;2022-12-18T08:15:24;103107.28;;;-4.12;100.00
64933;BME280;51446;53.850;10.662;2022-12-18T08:17:49;103108.03;;;-3.28;89.51
64933;BME280;51446;53.850;10.662;2022-12-18T08:20:14;103102.41;;;-3.17;78.98
64933;BME280;51446;53.850;10.662;2022-12-18T08:22:41;103103.38;;;-2.59;70.79
64933;BME280;51446;53.850;10.662;2022-12-18T08:25:07;103107.03;;;-2.57;70.38
64933;BME280;51446;53.850;10.662;2022-12-18T08:27:33;103106.38;;;-2.23;69.32
64933;BME280;51446;53.850;10.662;2022-12-18T08:29:58;103108.91;;;-1.73;66.90
64933;BME280;51446;53.850;10.662;2022-12-18T08:32:24;103110.72;;;-2.06;66.99
64933;BME280;51446;53.850;10.662;2022-12-18T08:34:50;103105.66;;;-1.88;64.77
64933;BME280;51446;53.850;10.662;2022-12-18T08:37:15;103107.31;;;-2.14;65.32
64933;BME280;51446;53.850;10.662;2022-12-18T08:39:40;103105.13;;;-2.27;66.64
64933;BME280;51446;53.850;10.662;2022-12-18T08:42:05;103103.81;;;-2.23;66.66
64933;BME280;51446;53.850;10.662;2022-12-18T08:44:49;103104.13;;;-3.24;66.90
64933;BME280;51446;53.850;10.662;2022-12-18T08:47:14;103109.41;;;-3.78;70.56
64933;BME280;51446;53.850;10.662;2022-12-18T08:49:40;103105.63;;;-4.42;75.13
64933;BME280;51446;53.850;10.662;2022-12-18T08:52:05;103114.03;;;-4.81;78.08
64933;BME280;51446;53.850;10.662;2022-12-18T08:54:30;103108.22;;;-4.94;81.33
64933;BME280;51446;53.850;10.662;2022-12-18T08:56:56;103107.22;;;-5.18;83.29
64933;BME280;51446;53.850;10.662;2022-12-18T08:59:21;103106.88;;;-5.28;83.34
64933;BME280;51446;53.850;10.662;2022-12-18T09:01:48;103104.72;;;-5.54;86.28
64933;BME280;51446;53.850;10.662;2022-12-18T09:04:13;103098.31;;;-5.72;87.65
64933;BME280;51446;53.850;10.662;2022-12-18T09:06:39;103097.59;;;-5.85;89.18
64933;BME280;51446;53.850;10.662;2022-12-18T09:09:04;103098.13;;;-5.73;90.85
64933;BME280;51446;53.850;10.662;2022-12-18T09:11:30;103100.69;;;-5.81;90.24
64933;BME280;51446;53.850;10.662;2022-12-18T09:13:56;103107.44;;;-5.96;90.25
64933;BME280;51446;53.850;10.662;2022-12-18T09:16:23;103105.25;;;-5.93;91.19
64933;BME280;51446;53.850;10.662;2022-12-18T09:18:48;103112.56;;;-5.81;92.08
64933;BME280;51446;53.850;10.662;2022-12-18T09:21:19;103107.44;;;-5.67;90.69
64933;BME280;51446;53.850;10.662;2022-12-18T09:23:52;103111.28;;;-5.78;91.23
64933;BME280;51446;53.850;10.662;2022-12-18T09:26:18;103109.09;;;-5.53;89.67
64933;BME280;51446;53.850;10.662;2022-12-18T09:28:44;103115.63;;;-5.33;89.68
64933;BME280;51446;53.850;10.662;2022-12-18T09:31:11;103120.25;;;-4.86;87.28
64933;BME280;51446;53.850;10.662;2022-12-18T09:33:37;103109.78;;;-3.82;84.25
64933;BME280;51446;53.850;10.662;2022-12-18T09:36:04;103103.72;;;-2.72;76.06
64933;BME280;51446;53.850;10.662;2022-12-18T09:38:29;103102.78;;;-2.57;72.26
64933;BME280;51446;53.850;10.662;2022-12-18T09:43:57;103101.53;;;-3.40;74.49
64933;BME280;51446;53.850;10.662;2022-12-18T09:46:27;103114.59;;;-3.46;74.33
64933;BME280;51446;53.850;10.662;2022-12-18T09:48:57;103114.81;;;-2.24;69.69
64933;BME280;51446;53.850;10.662;2022-12-18T09:51:30;103115.09;;;-1.47;65.14
64933;BME280;51446;53.850;10.662;2022-12-18T09:54:12;103101.69;;;-0.30;62.78
64933;BME280;51446;53.850;10.662;2022-12-18T09:56:41;103103.06;;;0.29;57.65
64933;BME280;51446;53.850;10.662;2022-12-18T09:59:20;103096.25;;;0.21;58.34
64933;BME280;51446;53.850;10.662;2022-12-18T10:01:46;103100.03;;;-0.21;55.45
64933;BME280;51446;53.850;10.662;2022-12-18T10:04:11;103094.25;;;0.27;56.33
64933;BME280;51446;53.850;10.662;2022-12-18T10:07:07;103098.03;;;0.67;55.47
64933;BME280;51446;53.850;10.662;2022-12-18T10:10:00;103100.69;;;0.49;54.62
64933;BME280;51446;53.850;10.662;2022-12-18T10:12:46;103091.75;;;0.46;55.81
64933;BME280;51446;53.850;10.662;2022-12-18T10:15:54;103104.69;;;-0.08;55.86
64933;BME280;51446;53.850;10.662;2022-12-18T10:20:52;103100.03;;;-0.82;58.50
64933;BME280;51446;53.850;10.662;2022-12-18T10:23:47;103093.59;;;0.02;57.51
64933;BME280;51446;53.850;10.662;2022-12-18T10:26:15;103090.59;;;0.61;54.58
64933;BME280;51446;53.850;10.662;2022-12-18T10:28:41;103087.16;;;-0.30;55.85
64933;BME280;51446;53.850;10.662;2022-12-18T10:31:14;103108.94;;;0.00;56.61
64933;BME280;51446;53.850;10.662;2022-12-18T10:33:41;103113.41;;;-0.60;57.68
64933;BME280;51446;53.850;10.662;2022-12-18T10:36:07;103131.94;;;-2.00;60.07
64933;BME280;51446;53.850;10.662;2022-12-18T10:38:32;103121.31;;;-2.03;64.18
64933;BME280;51446;53.850;10.662;2022-12-18T10:41:06;103116.63;;;-1.31;62.69
64933;BME280;51446;53.850;10.662;2022-12-18T10:43:38;103110.53;;;-0.55;60.65
64933;BME280;51446;53.850;10.662;2022-12-18T10:48:34;103113.00;;;0.52;55.53
64933;BME280;51446;53.850;10.662;2022-12-18T10:51:01;103102.97;;;1.21;53.38
64933;BME280;51446;53.850;10.662;2022-12-18T10:53:29;103104.81;;;0.75;52.91
64933;BME280;51446;53.850;10.662;2022-12-18T10:55:58;103109.59;;;-0.38;56.35
64933;BME280;51446;53.850;10.662;2022-12-18T10:58:29;103100.66;;;0.13;55.77
64933;BME280;51446;53.850;10.662;2022-12-18T11:03:43;103089.53;;;0.68;55.81
64933;BME280;51446;53.850;10.662;2022-12-18T11:06:14;103088.84;;;-0.65;58.93
64933;BME280;51446;53.850;10.662;2022-12-18T11:08:41;103086.25;;;-0.92;60.13
64933;BME280;51446;53.850;10.662;2022-12-18T11:11:18;103082.75;;;-1.01;59.92
64933;BME280;51446;53.850;10.662;2022-12-18T11:13:56;103090.38;;;-1.53;61.47
64933;BME280;51446;53.850;10.662;2022-12-18T11:16:23;103095.47;;;-2.04;63.18
64933;BME280;51446;53.850;10.662;2022-12-18T11:18:49;103095.94;;;-2.49;66.91
64933;BME280;51446;53.850;10.662;2022-12-18T11:21:15;103092.75;;;-2.22;65.82
64933;BME280;51446;53.850;10.662;2022-12-18T11:23:49;103101.66;;;-2.02;65.78
64933;BME280;51446;53.850;10.662;2022-12-18T11:26:15;103115.19;;;-1.87;67.48
64933;BME280;51446;53.850;10.662;2022-12-18T11:28:47;103128.97;;;-0.94;63.27
64933;BME280;51446;53.850;10.662;2022-12-18T11:33:45;103102.31;;;-0.68;60.63
64933;BME280;51446;53.850;10.662;2022-12-18T11:36:12;103088.13;;;-1.42;63.19
64933;BME280;51446;53.850;10.662;2022-12-18T11:38:40;103078.50;;;-2.02;65.80
64933;BME280;51446;53.850;10.662;2022-12-18T11:41:24;103076.81;;;-2.76;68.94
64933;BME280;51446;53.850;10.662;2022-12-18T11:44:29;103071.47;;;-3.34;73.47
64933;BME280;51446;53.850;10.662;2022-12-18T11:47:03;103074.78;;;-3.74;76.64
64933;BME280;51446;53.850;10.662;2022-12-18T11:49:33;103080.63;;;-3.75;77.64
64933;BME280;51446;53.850;10.662;2022-12-18T11:52:10;103082.69;;;-3.80;80.10
64933;BME280;51446;53.850;10.662;2022-12-18T11:54:39;103088.72;;;-3.79;80.20
64933;BME280;51446;53.850;10.662;2022-12-18T11:57:28;103082.47;;;-3.97;82.30
64933;BME280;51446;53.850;10.662;2022-12-18T12:00:11;103081.31;;;-4.15;84.55
64933;BME280;51446;53.850;10.662;2022-12-18T12:03:20;103081.59;;;-4.05;85.48
64933;BME280;51446;53.850;10.662;2022-12-18T12:08:56;103086.38;;;-4.08;86.04
64933;BME280;51446;53.850;10.662;2022-12-18T12:11:58;103085.44;;;-4.02;86.21
64933;BME280;51446;53.850;10.662;2022-12-18T12:14:42;103073.63;;;-3.92;86.53
64933;BME280;51446;53.850;10.662;2022-12-18T12:25:14;103061.13;;;-3.66;87.14
64933;BME280;51446;53.850;10.662;2022-12-18T12:28:02;103053.84;;;-3.93;88.62
64933;BME280;51446;53.850;10.662;2022-12-18T12:30:53;103058.53;;;-4.05;89.40
64933;BME280;51446;53.850;10.662;2022-12-18T12:33:36;103065.16;;;-4.07;90.70
64933;BME280;51446;53.850;10.662;2022-12-18T12:39:18;103056.94;;;-3.89;90.35
64933;BME280;51446;53.850;10.662;2022-12-18T12:41:46;103042.09;;;-4.07;90.76
64933;BME280;51446;53.850;10.662;2022-12-18T12:44:35;103030.16;;;-4.07;91.80
64933;BME280;51446;53.850;10.662;2022-12-18T12:47:27;103028.72;;;-4.05;92.74
64933;BME280;51446;53.850;10.662;2022-12-18T12:49:54;103031.72;;;-3.93;91.76
64933;BME280;51446;53.850;10.662;2022-12-18T12:54:57;103020.31;;;-4.11;92.32
64933;BME280;51446;53.850;10.662;2022-12-18T12:57:31;103029.59;;;-4.27;93.78
64933;BME280;51446;53.850;10.662;2022-12-18T13:00:17;103021.69;;;-4.22;93.97
64933;BME280;51446;53.850;10.662;2022-12-18T13:03:08;103020.72;;;-4.15;92.70
64933;BME280;51446;53.850;10.662;2022-12-18T13:05:45;103014.75;;;-4.23;93.80
64933;BME280;51446;53.850;10.662;2022-12-18T13:08:30;103014.13;;;-4.36;95.27
64933;BME280;51446;53.850;10.662;2022-12-18T13:10:58;102997.66;;;-4.38;95.44
64933;BME280;51446;53.850;10.662;2022-12-18T13:13:53;102999.53;;;-4.44;96.46
64933;BME280;51446;53.850;10.662;2022-12-18T13:16:21;102991.47;;;-4.40;97.36
64933;BME280;51446;53.850;10.662;2022-12-18T13:18:51;102977.91;;;-4.16;97.36
64933;BME280;51446;53.850;10.662;2022-12-18T13:21:31;102981.03;;;-4.19;96.59
64933;BME280;51446;53.850;10.662;2022-12-18T13:24:14;102971.03;;;-4.24;96.40
64933;BME280;51446;53.850;10.662;2022-12-18T13:26:40;102955.94;;;-4.14;96.82
64933;BME280;51446;53.850;10.662;2022-12-18T13:29:05;102943.94;;;-4.06;96.65
64933;BME280;51446;53.850;10.662;2022-12-18T13:34:25;102939.41;;;-4.09;95.78